createdAt,value
2018-06-24T00:00:53.616Z,12.46
2018-06-24T00:03:24.212Z,12.39
2018-06-24T00:05:53.576Z,12.55
2018-06-24T00:08:22.925Z,12.51
2018-06-24T00:10:52.332Z,12.42
2018-06-24T00:13:21.688Z,12.44
2018-06-24T00:15:51.028Z,12.34
2018-06-24T00:18:20.369Z,12.24
2018-06-24T00:20:49.698Z,12.09
2018-06-24T00:23:19.015Z,11.99
2018-06-24T00:25:48.335Z,11.94
2018-06-24T00:28:17.698Z,11.89
2018-06-24T00:30:47.065Z,11.90
2018-06-24T00:33:16.416Z,11.76
2018-06-24T00:35:45.804Z,11.78
2018-06-24T00:38:15.152Z,11.72
2018-06-24T00:40:44.484Z,11.69
2018-06-24T00:43:13.847Z,11.64
2018-06-24T00:45:43.246Z,11.55
2018-06-24T00:48:12.568Z,11.45
2018-06-24T00:50:41.904Z,11.48
2018-06-24T00:53:11.252Z,11.46
2018-06-24T00:55:40.581Z,11.35
2018-06-24T00:58:09.941Z,11.29
2018-06-24T01:00:39.347Z,11.21
2018-06-24T01:03:08.710Z,11.07
2018-06-24T01:05:38.061Z,10.94
2018-06-24T01:08:07.467Z,11.02
2018-06-24T01:10:36.799Z,10.90
2018-06-24T01:13:06.153Z,10.99
2018-06-24T01:15:35.488Z,10.98
2018-06-24T01:18:04.898Z,10.98
2018-06-24T01:20:34.251Z,11.00
2018-06-24T01:23:03.607Z,10.93
2018-06-24T01:25:32.967Z,10.96
2018-06-24T01:28:02.307Z,11.01
2018-06-24T01:30:31.667Z,10.98
2018-06-24T01:33:00.715Z,10.91
2018-06-24T01:35:30.068Z,10.78
2018-06-24T01:37:59.411Z,10.85
2018-06-24T01:40:28.755Z,10.78
2018-06-24T01:42:58.090Z,10.79
2018-06-24T01:45:27.468Z,10.63
2018-06-24T01:47:56.771Z,10.64
2018-06-24T01:50:26.127Z,10.65
2018-06-24T01:52:55.601Z,10.70
2018-06-24T01:55:24.928Z,10.71
2018-06-24T01:57:54.273Z,10.70
2018-06-24T02:00:23.615Z,10.61
2018-06-24T02:02:52.955Z,10.51
2018-06-24T02:05:22.305Z,10.38
2018-06-24T02:07:51.678Z,10.28
2018-06-24T02:10:20.997Z,10.24
2018-06-24T02:12:50.347Z,10.28
2018-06-24T02:15:19.683Z,10.20
2018-06-24T02:17:49.001Z,10.21
2018-06-24T02:20:18.329Z,10.23
2018-06-24T02:22:47.644Z,10.25
2018-06-24T02:25:16.966Z,10.24
2018-06-24T02:27:46.317Z,10.37
2018-06-24T02:30:15.641Z,10.36
2018-06-24T02:32:44.980Z,10.48
2018-06-24T02:35:14.335Z,10.52
2018-06-24T02:37:43.652Z,10.45
2018-06-24T02:40:12.976Z,10.43
2018-06-24T02:42:42.321Z,10.39
2018-06-24T02:45:11.625Z,10.41
2018-06-24T02:47:40.948Z,10.36
2018-06-24T02:50:10.304Z,10.42
2018-06-24T02:52:39.612Z,10.43
2018-06-24T02:55:08.932Z,10.44
2018-06-24T02:57:38.320Z,10.52
2018-06-24T03:00:07.648Z,10.47
2018-06-24T03:02:37.012Z,10.43
2018-06-24T03:05:06.336Z,10.40
2018-06-24T03:07:35.672Z,10.39
2018-06-24T03:10:05.075Z,10.40
2018-06-24T03:12:34.415Z,10.44
2018-06-24T03:15:03.756Z,10.43
2018-06-24T03:17:33.132Z,10.42
2018-06-24T03:20:02.446Z,10.34
2018-06-24T03:22:31.808Z,10.39
2018-06-24T03:25:01.123Z,10.38
2018-06-24T03:27:30.440Z,10.40
2018-06-24T03:29:59.778Z,10.43
2018-06-24T03:32:29.348Z,10.33
2018-06-24T03:34:58.676Z,10.37
2018-06-24T03:37:28.012Z,10.21
2018-06-24T03:39:57.464Z,10.22
2018-06-24T03:42:26.776Z,10.30
2018-06-24T03:44:56.152Z,10.28
2018-06-24T03:47:25.496Z,10.42
2018-06-24T03:49:54.805Z,10.34
2018-06-24T03:52:24.171Z,10.35
2018-06-24T03:54:53.479Z,10.44
2018-06-24T03:57:22.860Z,10.47
2018-06-24T03:59:52.220Z,10.65
2018-06-24T04:02:21.533Z,10.78
2018-06-24T04:04:50.998Z,10.84
2018-06-24T04:07:20.248Z,10.91
2018-06-24T04:09:49.582Z,10.97
2018-06-24T04:12:18.983Z,10.96
2018-06-24T04:14:49.406Z,10.95
2018-06-24T04:17:18.732Z,11.03
2018-06-24T04:19:48.065Z,11.20
2018-06-24T04:22:17.432Z,11.17
2018-06-24T04:24:46.770Z,11.29
2018-06-24T04:27:16.220Z,11.32
2018-06-24T04:29:45.532Z,11.46
2018-06-24T04:32:14.870Z,11.31
2018-06-24T04:34:44.217Z,11.41
2018-06-24T04:37:13.580Z,11.55
2018-06-24T04:39:42.893Z,11.51
2018-06-24T04:42:12.256Z,11.66
2018-06-24T04:44:41.631Z,11.43
2018-06-24T04:47:10.943Z,11.54
2018-06-24T04:49:40.308Z,11.54
2018-06-24T04:52:09.667Z,11.70
2018-06-24T04:54:39.004Z,11.87
2018-06-24T04:57:08.336Z,11.95
2018-06-24T04:59:37.848Z,12.12
2018-06-24T05:02:07.221Z,12.31
2018-06-24T05:04:36.645Z,12.41
2018-06-24T05:07:05.980Z,12.37
2018-06-24T05:09:35.289Z,12.62
2018-06-24T05:12:04.588Z,12.67
2018-06-24T05:14:33.964Z,12.70
2018-06-24T05:17:03.259Z,12.82
2018-06-24T05:19:32.600Z,12.68
2018-06-24T05:22:01.926Z,12.66
2018-06-24T05:24:31.274Z,12.67
2018-06-24T05:27:00.651Z,12.68
2018-06-24T05:29:30.005Z,12.66
2018-06-24T05:31:59.328Z,12.64
2018-06-24T05:34:28.663Z,12.70
2018-06-24T05:36:58.016Z,12.68
2018-06-24T05:39:27.349Z,12.88
2018-06-24T05:41:56.686Z,12.79
2018-06-24T05:44:26.005Z,12.88
2018-06-24T05:46:55.336Z,12.87
2018-06-24T05:49:24.390Z,12.90
2018-06-24T05:51:53.728Z,12.76
2018-06-24T05:54:23.106Z,12.67
2018-06-24T05:56:52.394Z,13.03
2018-06-24T05:59:21.727Z,13.10
2018-06-24T06:01:51.080Z,13.11
2018-06-24T06:04:20.451Z,13.24
2018-06-24T06:06:50.126Z,13.38
2018-06-24T06:09:19.468Z,13.38
2018-06-24T06:11:48.797Z,13.61
2018-06-24T06:14:18.124Z,13.78
2018-06-24T06:16:47.460Z,13.84
2018-06-24T06:19:16.798Z,14.04
2018-06-24T06:21:46.132Z,14.07
2018-06-24T06:24:15.536Z,14.19
2018-06-24T06:26:44.864Z,14.38
2018-06-24T06:29:14.217Z,14.36
2018-06-24T06:31:43.575Z,14.46
2018-06-24T06:34:12.886Z,14.77
2018-06-24T06:36:42.228Z,14.96
2018-06-24T06:39:17.804Z,14.95
2018-06-24T06:41:47.136Z,15.12
2018-06-24T06:44:16.476Z,15.23
2018-06-24T06:46:45.828Z,15.31
2018-06-24T06:49:15.167Z,15.64
2018-06-24T06:51:44.488Z,15.83
2018-06-24T06:54:13.845Z,15.68
2018-06-24T06:56:43.255Z,15.80
2018-06-24T06:59:12.634Z,15.87
2018-06-24T07:01:41.964Z,15.99
2018-06-24T07:04:11.315Z,16.17
2018-06-24T07:06:40.648Z,16.12
2018-06-24T07:09:10.972Z,16.21
2018-06-24T07:11:40.596Z,16.47
2018-06-24T07:14:13.478Z,16.66
2018-06-24T07:16:42.821Z,16.79
2018-06-24T07:19:12.148Z,16.85
2018-06-24T07:21:41.462Z,16.74
2018-06-24T07:24:10.820Z,16.67
2018-06-24T07:26:40.311Z,16.84
2018-06-24T07:29:09.655Z,16.98
2018-06-24T07:31:38.738Z,16.83
2018-06-24T07:34:08.168Z,16.96
2018-06-24T07:36:37.521Z,17.15
2018-06-24T07:39:09.808Z,17.33
2018-06-24T07:41:39.282Z,17.13
2018-06-24T07:44:08.648Z,17.11
2018-06-24T07:46:37.992Z,17.21
2018-06-24T07:49:07.332Z,17.48
2018-06-24T07:51:36.919Z,17.50
2018-06-24T07:54:06.310Z,17.55
2018-06-24T07:56:35.656Z,17.62
2018-06-24T07:59:04.993Z,17.73
2018-06-24T08:01:34.334Z,17.49
2018-06-24T08:04:03.741Z,17.82
2018-06-24T08:06:33.168Z,18.12
2018-06-24T08:09:02.546Z,18.34
2018-06-24T08:11:31.900Z,18.47
2018-06-24T08:14:01.286Z,18.45
2018-06-24T08:16:30.605Z,18.18
2018-06-24T08:19:00.013Z,17.97
2018-06-24T08:21:29.320Z,17.90
2018-06-24T08:23:58.681Z,17.85
2018-06-24T08:26:28.017Z,17.99
2018-06-24T08:28:57.388Z,18.31
2018-06-24T08:31:26.761Z,17.78
2018-06-24T08:33:56.172Z,17.89
2018-06-24T08:36:25.614Z,17.69
2018-06-24T08:38:54.981Z,17.94
2018-06-24T08:41:24.280Z,17.84
2018-06-24T08:43:53.639Z,17.54
2018-06-24T08:46:22.976Z,17.43
2018-06-24T08:48:52.303Z,17.37
2018-06-24T08:51:21.609Z,17.23
2018-06-24T08:53:50.949Z,17.34
2018-06-24T08:56:20.273Z,17.00
2018-06-24T08:58:49.631Z,16.76
2018-06-24T09:01:19.008Z,17.14
2018-06-24T09:03:48.373Z,17.29
2018-06-24T09:06:17.679Z,17.15
2018-06-24T09:08:46.996Z,17.53
2018-06-24T09:11:16.416Z,17.82
2018-06-24T09:13:45.839Z,18.18
2018-06-24T09:16:15.197Z,18.33
2018-06-24T09:18:45.167Z,18.80
2018-06-24T09:21:14.651Z,19.02
2018-06-24T09:23:43.944Z,18.88
2018-06-24T09:26:13.276Z,18.74
2018-06-24T09:28:42.663Z,18.55
2018-06-24T09:31:12.032Z,18.66
2018-06-24T09:33:41.420Z,18.47
2018-06-24T09:36:10.740Z,18.46
2018-06-24T09:38:40.104Z,18.25
2018-06-24T09:41:09.429Z,18.22
2018-06-24T09:43:38.764Z,18.21
2018-06-24T09:46:08.099Z,18.05
2018-06-24T09:48:37.479Z,17.87
2018-06-24T09:51:06.880Z,18.17
2018-06-24T09:53:39.413Z,18.77
2018-06-24T09:56:08.732Z,18.95
2018-06-24T09:58:38.056Z,18.46
2018-06-24T10:01:07.567Z,18.53
2018-06-24T10:03:36.879Z,18.93
2018-06-24T10:06:06.208Z,18.93
2018-06-24T10:08:35.524Z,18.94
2018-06-24T10:11:04.844Z,19.35
2018-06-24T10:13:34.160Z,19.46
2018-06-24T10:16:03.532Z,18.79
2018-06-24T10:18:32.832Z,18.72
2018-06-24T10:21:02.204Z,18.40
2018-06-24T10:23:31.551Z,18.52
2018-06-24T10:26:01.040Z,18.25
2018-06-24T10:28:30.351Z,18.65
2018-06-24T10:30:59.700Z,18.62
2018-06-24T10:33:29.151Z,18.76
2018-06-24T10:35:58.480Z,19.37
2018-06-24T10:38:27.880Z,19.75
2018-06-24T10:40:57.235Z,19.96
2018-06-24T10:43:26.576Z,19.84
2018-06-24T10:45:55.936Z,20.14
2018-06-24T10:48:25.285Z,20.00
2018-06-24T10:50:54.628Z,20.05
2018-06-24T10:53:23.996Z,19.89
2018-06-24T10:55:53.356Z,19.28
2018-06-24T10:58:22.692Z,19.81
2018-06-24T11:00:52.012Z,19.60
2018-06-24T11:03:21.347Z,19.48
2018-06-24T11:05:50.684Z,19.73
2018-06-24T11:08:20.016Z,19.78
2018-06-24T11:10:49.406Z,19.40
2018-06-24T11:13:18.775Z,19.00
2018-06-24T11:15:48.105Z,18.88
2018-06-24T11:18:17.506Z,19.06
2018-06-24T11:20:46.848Z,18.72
2018-06-24T11:23:16.189Z,18.23
2018-06-24T11:25:45.603Z,18.13
2018-06-24T11:28:14.931Z,17.80
2018-06-24T11:30:44.298Z,17.74
2018-06-24T11:33:13.656Z,17.63
2018-06-24T11:35:43.004Z,17.89
2018-06-24T11:38:12.331Z,17.49
2018-06-24T11:40:41.832Z,17.49
2018-06-24T11:43:11.185Z,17.66
2018-06-24T11:45:40.501Z,17.72
2018-06-24T11:48:09.844Z,17.88
2018-06-24T11:50:39.153Z,18.12
2018-06-24T11:53:08.496Z,17.86
2018-06-24T11:55:37.847Z,18.26
2018-06-24T11:58:07.300Z,18.26
2018-06-24T12:00:36.674Z,18.54
2018-06-24T12:03:06.345Z,18.38
2018-06-24T12:05:35.652Z,18.48
2018-06-24T12:08:05.016Z,18.26
2018-06-24T12:10:34.376Z,18.51
2018-06-24T12:13:03.803Z,18.75
2018-06-24T12:15:33.139Z,18.94
2018-06-24T12:18:02.499Z,18.75
2018-06-24T12:20:31.904Z,18.94
2018-06-24T12:23:01.370Z,19.19
2018-06-24T12:25:30.669Z,19.40
2018-06-24T12:28:00.023Z,19.45
2018-06-24T12:30:29.340Z,19.88
2018-06-24T12:32:58.723Z,20.15
2018-06-24T12:35:28.063Z,20.12
2018-06-24T12:38:02.868Z,20.33
2018-06-24T12:40:34.068Z,19.93
2018-06-24T12:43:04.468Z,19.60
2018-06-24T12:45:34.295Z,19.41
2018-06-24T12:48:03.622Z,19.28
2018-06-24T12:50:32.968Z,19.15
2018-06-24T12:53:02.330Z,19.26
2018-06-24T12:55:31.708Z,19.44
2018-06-24T12:58:01.032Z,18.97
2018-06-24T13:00:30.891Z,18.94
2018-06-24T13:02:59.696Z,19.22
2018-06-24T13:05:31.096Z,19.40
2018-06-24T13:08:00.408Z,19.46
2018-06-24T13:10:29.755Z,19.58
2018-06-24T13:12:59.087Z,18.77
2018-06-24T13:15:28.440Z,19.04
2018-06-24T13:17:57.768Z,19.13
2018-06-24T13:20:27.157Z,19.13
2018-06-24T13:22:56.461Z,19.25
2018-06-24T13:25:25.772Z,19.24
2018-06-24T13:27:55.440Z,18.81
2018-06-24T13:30:25.622Z,19.00
2018-06-24T13:32:55.033Z,18.78
2018-06-24T13:35:24.353Z,19.03
2018-06-24T13:37:53.660Z,19.21
2018-06-24T13:40:23.023Z,19.25
2018-06-24T13:42:52.404Z,19.40
2018-06-24T13:45:21.755Z,19.20
2018-06-24T13:47:51.104Z,18.78
2018-06-24T13:50:21.225Z,18.73
2018-06-24T13:52:50.547Z,18.86
2018-06-24T13:55:19.976Z,18.50
2018-06-24T13:57:49.313Z,18.68
2018-06-24T14:00:18.708Z,18.63
2018-06-24T14:02:48.041Z,18.67
2018-06-24T14:05:17.377Z,18.70
2018-06-24T14:07:46.706Z,18.77
2018-06-24T14:10:16.030Z,18.64
2018-06-24T14:12:45.357Z,18.28
2018-06-24T14:15:14.701Z,18.10
2018-06-24T14:17:44.064Z,18.26
2018-06-24T14:20:13.413Z,18.38
2018-06-24T14:22:42.753Z,18.34
2018-06-24T14:25:12.112Z,18.23
2018-06-24T14:27:41.179Z,18.20
2018-06-24T14:30:10.496Z,18.12
2018-06-24T14:32:39.855Z,18.21
2018-06-24T14:35:09.271Z,18.56
2018-06-24T14:37:38.600Z,18.71
2018-06-24T14:40:07.953Z,18.94
2018-06-24T14:42:37.324Z,19.08
2018-06-24T14:45:06.720Z,19.16
2018-06-24T14:47:36.055Z,19.03
2018-06-24T14:50:05.528Z,19.06
2018-06-24T14:52:34.887Z,19.24
2018-06-24T14:55:04.213Z,18.97
2018-06-24T14:57:33.545Z,19.11
2018-06-24T15:00:02.882Z,18.89
2018-06-24T15:02:35.135Z,19.14
2018-06-24T15:05:05.559Z,19.24
2018-06-24T15:07:34.896Z,18.98
2018-06-24T15:10:04.636Z,19.14
2018-06-24T15:12:34.074Z,19.16
2018-06-24T15:15:03.447Z,19.46
2018-06-24T15:17:32.797Z,19.57
2018-06-24T15:20:02.137Z,19.46
2018-06-24T15:22:31.617Z,19.31
2018-06-24T15:25:00.945Z,18.77
2018-06-24T15:27:30.396Z,19.06
2018-06-24T15:29:59.756Z,19.01
2018-06-24T15:32:29.086Z,18.60
2018-06-24T15:34:58.405Z,18.87
2018-06-24T15:37:27.776Z,18.72
2018-06-24T15:39:57.128Z,18.82
2018-06-24T15:42:26.452Z,18.81
2018-06-24T15:44:55.864Z,18.77
2018-06-24T15:47:25.191Z,18.81
2018-06-24T15:49:54.528Z,19.02
2018-06-24T15:52:23.889Z,19.04
2018-06-24T15:54:53.262Z,19.00
2018-06-24T15:57:22.610Z,19.39
2018-06-24T15:59:51.945Z,19.63
2018-06-24T16:02:21.278Z,19.86
2018-06-24T16:04:50.645Z,20.10
2018-06-24T16:07:20.029Z,20.14
2018-06-24T16:09:49.640Z,19.54
2018-06-24T16:12:18.964Z,19.11
2018-06-24T16:14:48.297Z,18.33
2018-06-24T16:17:17.726Z,18.50
2018-06-24T16:19:47.137Z,18.20
2018-06-24T16:22:16.484Z,17.72
2018-06-24T16:24:45.840Z,18.05
2018-06-24T16:27:15.175Z,17.78
2018-06-24T16:29:44.532Z,17.60
2018-06-24T16:32:13.903Z,17.42
2018-06-24T16:34:43.324Z,16.97
2018-06-24T16:37:12.695Z,16.98
2018-06-24T16:39:42.124Z,16.75
2018-06-24T16:42:11.504Z,16.86
2018-06-24T16:44:40.903Z,16.97
2018-06-24T16:47:10.246Z,17.26
2018-06-24T16:49:39.656Z,17.29
2018-06-24T16:52:08.944Z,17.25
2018-06-24T16:54:38.327Z,17.37
2018-06-24T16:57:07.736Z,17.39
2018-06-24T16:59:37.120Z,17.41
2018-06-24T17:02:06.764Z,17.14
2018-06-24T17:04:36.136Z,17.20
2018-06-24T17:07:05.632Z,17.01
2018-06-24T17:09:34.977Z,16.87
2018-06-24T17:12:04.360Z,16.82
2018-06-24T17:14:33.747Z,17.13
2018-06-24T17:17:03.075Z,17.32
2018-06-24T17:19:32.452Z,17.45
2018-06-24T17:22:01.856Z,17.08
2018-06-24T17:24:31.204Z,17.22
2018-06-24T17:27:00.558Z,17.29
2018-06-24T17:29:29.896Z,17.25
2018-06-24T17:31:59.295Z,17.30
2018-06-24T17:34:28.663Z,17.24
2018-06-24T17:36:58.735Z,16.96
2018-06-24T17:39:28.452Z,16.94
2018-06-24T17:41:58.022Z,17.15
2018-06-24T17:44:27.366Z,17.13
2018-06-24T17:46:56.879Z,16.75
2018-06-24T17:49:26.265Z,16.80
2018-06-24T17:51:55.622Z,16.81
2018-06-24T17:54:24.981Z,16.71
2018-06-24T17:56:54.431Z,16.66
2018-06-24T17:59:23.792Z,16.49
2018-06-24T18:01:53.236Z,16.71
2018-06-24T18:04:22.636Z,16.57
2018-06-24T18:06:52.030Z,16.71
2018-06-24T18:09:21.482Z,16.31
2018-06-24T18:11:50.937Z,16.51
2018-06-24T18:14:20.345Z,16.77
2018-06-24T18:16:49.949Z,16.77
2018-06-24T18:19:20.662Z,16.87
2018-06-24T18:21:50.302Z,16.94
2018-06-24T18:24:19.857Z,16.87
2018-06-24T18:26:49.908Z,16.47
2018-06-24T18:29:19.794Z,16.65
2018-06-24T18:31:50.134Z,16.37
2018-06-24T18:34:22.149Z,16.57
2018-06-24T18:36:53.931Z,16.63
2018-06-24T18:39:26.077Z,16.79
2018-06-24T18:41:58.035Z,16.87
2018-06-24T18:44:30.105Z,16.55
2018-06-24T18:47:02.259Z,16.64
2018-06-24T18:49:34.369Z,16.75
2018-06-24T18:52:06.483Z,16.69
2018-06-24T18:54:38.855Z,16.26
2018-06-24T18:57:11.027Z,16.20
2018-06-24T18:59:43.974Z,15.84
2018-06-24T19:02:16.129Z,15.77
2018-06-24T19:04:48.246Z,15.90
2018-06-24T19:07:19.596Z,15.86
2018-06-24T19:09:51.845Z,15.64
2018-06-24T19:12:24.004Z,15.48
2018-06-24T19:14:56.396Z,15.43
2018-06-24T19:17:28.559Z,15.45
2018-06-24T19:20:00.852Z,15.48
2018-06-24T19:22:33.015Z,15.66
2018-06-24T19:25:05.373Z,15.49
2018-06-24T19:27:37.504Z,15.65
2018-06-24T19:30:09.730Z,15.63
2018-06-24T19:32:41.910Z,15.27
2018-06-24T19:35:14.264Z,15.28
2018-06-24T19:37:46.505Z,15.27
2018-06-24T19:40:18.783Z,15.40
2018-06-24T19:42:51.440Z,15.27
2018-06-24T19:45:23.865Z,15.12
2018-06-24T19:47:56.078Z,15.07
2018-06-24T19:50:28.347Z,15.24
2018-06-24T19:53:00.571Z,15.22
2018-06-24T19:55:32.849Z,15.22
2018-06-24T19:58:05.093Z,15.33
2018-06-24T20:00:37.423Z,15.16
2018-06-24T20:03:09.683Z,15.14
2018-06-24T20:05:41.995Z,15.29
2018-06-24T20:08:14.174Z,15.43
2018-06-24T20:10:46.449Z,15.36
2018-06-24T20:13:18.566Z,15.56
2018-06-24T20:15:50.816Z,15.69
2018-06-24T20:18:23.334Z,15.65
2018-06-24T20:20:55.529Z,15.67
2018-06-24T20:23:26.990Z,15.64
2018-06-24T20:25:59.204Z,15.46
2018-06-24T20:28:31.357Z,15.41
2018-06-24T20:31:04.049Z,15.41
2018-06-24T20:33:36.392Z,15.39
2018-06-24T20:36:08.951Z,15.12
2018-06-24T20:38:41.033Z,15.10
2018-06-24T20:41:13.295Z,15.19
2018-06-24T20:43:45.351Z,15.28
2018-06-24T20:46:18.437Z,15.26
2018-06-24T20:48:50.387Z,15.13
2018-06-24T20:51:22.299Z,15.01
2018-06-24T20:53:54.199Z,15.02
2018-06-24T20:56:26.066Z,15.06
2018-06-24T20:58:57.424Z,14.80
2018-06-24T21:05:03.726Z,14.98
2018-06-24T21:07:35.061Z,15.12
2018-06-24T21:10:05.083Z,15.25
2018-06-24T21:12:34.581Z,15.14
2018-06-24T21:15:04.047Z,15.25
2018-06-24T21:17:34.296Z,15.26
2018-06-24T21:20:03.695Z,15.36
2018-06-24T21:22:33.154Z,15.39
2018-06-24T21:25:02.652Z,15.12
2018-06-24T21:27:31.988Z,15.04
2018-06-24T21:30:01.347Z,15.13
2018-06-24T21:32:30.698Z,15.21
2018-06-24T21:35:00.022Z,15.28
2018-06-24T21:37:29.409Z,15.32
2018-06-24T21:39:58.745Z,15.25
2018-06-24T21:42:28.095Z,15.43
2018-06-24T21:44:57.508Z,15.46
2018-06-24T21:47:26.893Z,15.41
2018-06-24T21:49:56.255Z,15.36
2018-06-24T21:52:25.607Z,15.36
2018-06-24T21:54:54.953Z,15.36
2018-06-24T21:57:24.301Z,15.53
2018-06-24T21:59:53.657Z,15.65
2018-06-24T22:02:22.993Z,15.69
2018-06-24T22:04:52.434Z,15.64
2018-06-24T22:07:21.812Z,15.66
2018-06-24T22:09:51.185Z,15.79
2018-06-24T22:12:20.543Z,15.81
2018-06-24T22:14:49.861Z,15.84
2018-06-24T22:17:19.201Z,15.71
2018-06-24T22:19:48.544Z,15.76
2018-06-24T22:22:17.884Z,15.58
2018-06-24T22:24:47.231Z,15.44
2018-06-24T22:27:16.605Z,15.58
2018-06-24T22:29:45.948Z,15.61
2018-06-24T22:32:15.332Z,15.71
2018-06-24T22:34:44.676Z,15.75
2018-06-24T22:37:14.008Z,15.74
2018-06-24T22:39:43.319Z,15.65
2018-06-24T22:42:12.664Z,15.81
2018-06-24T22:44:41.710Z,15.85
2018-06-24T22:47:11.192Z,15.73
2018-06-24T22:49:40.527Z,15.76
2018-06-24T22:52:09.865Z,15.75
2018-06-24T22:54:39.193Z,15.88
2018-06-24T22:57:08.571Z,15.90
2018-06-24T22:59:55.033Z,15.90
2018-06-24T23:02:24.401Z,15.99
2018-06-24T23:04:53.740Z,16.00
2018-06-24T23:07:23.098Z,15.94
2018-06-24T23:09:52.432Z,15.86
2018-06-24T23:12:21.749Z,15.79
2018-06-24T23:14:51.092Z,15.86
2018-06-24T23:17:20.426Z,15.94
2018-06-24T23:19:49.756Z,15.88
2018-06-24T23:22:19.064Z,15.69
2018-06-24T23:24:48.385Z,15.79
2018-06-24T23:27:17.700Z,15.72
2018-06-24T23:29:47.033Z,15.72
2018-06-24T23:32:16.440Z,15.58
2018-06-24T23:34:45.786Z,15.56
2018-06-24T23:37:14.839Z,15.53
2018-06-24T23:39:44.236Z,15.67
2018-06-24T23:42:13.549Z,15.58
2018-06-24T23:44:42.867Z,15.48
2018-06-24T23:47:12.320Z,15.55
2018-06-24T23:49:41.653Z,15.61
2018-06-24T23:52:10.996Z,15.66
2018-06-24T23:54:40.321Z,15.77
2018-06-24T23:57:09.653Z,15.71
2018-06-24T23:59:39.033Z,15.78
